Time;durP1;ratioP1;P1;durP2;ratioP2;P2;SDS_P1;SDS_P2;PMS_P1;PMS_P2;Temp;Humidity;BMP_temperature;BMP_pressure;BME280_temperature;BME280_humidity;BME280_pressure;Samples;Min_cycle;Max_cycle;Signal;HPM_P1;HPM_P2
2022/05/18 00:01:28;;;;;;;7.13;3.50;;;;;;;16.58;94.18;100806.16;21025429;28;20390;-64
2022/05/18 00:11:32;;;;;;;8.95;3.80;;;;;;;16.61;93.84;100801.59;21025883;28;20572;-64
2022/05/18 00:21:33;;;;;;;7.80;4.20;;;;;;;16.50;94.41;100801.13;21026321;28;20114;-65
2022/05/18 00:31:35;;;;;;;8.45;4.15;;;;;;;16.50;94.37;100814.34;21024902;28;20098;-65
2022/05/18 00:41:38;;;;;;;7.10;4.00;;;;;;;16.51;94.30;100805.47;21023281;28;20048;-66
2022/05/18 00:51:44;;;;;;;8.65;4.00;;;;;;;16.40;94.85;100820.84;21024607;28;20048;-65
2022/05/18 01:01:46;;;;;;;6.55;3.88;;;;;;;16.35;95.30;100814.84;21039330;28;20101;-65
2022/05/18 01:11:47;;;;;;;9.43;3.92;;;;;;;16.30;95.71;100814.13;21040017;28;20058;-65
2022/05/18 01:22:00;;;;;;;12.32;4.22;;;;;;;16.30;95.43;100801.78;21039638;28;20040;-65
2022/05/18 01:32:04;;;;;;;6.20;3.45;;;;;;;16.33;95.00;100811.38;21038424;28;20059;-65
2022/05/18 01:42:06;;;;;;;7.57;3.37;;;;;;;16.25;95.05;100822.22;21038869;28;20047;-65
2022/05/18 01:52:10;;;;;;;6.75;3.78;;;;;;;15.94;96.27;100835.50;21037765;28;20044;-65
2022/05/18 02:02:12;;;;;;;8.07;3.80;;;;;;;15.49;99.64;100835.09;21036070;28;20055;-66
2022/05/18 02:12:14;;;;;;;8.70;4.30;;;;;;;15.48;99.68;100836.88;21034651;28;20048;-65
2022/05/18 02:22:16;;;;;;;9.05;4.47;;;;;;;15.56;99.24;100828.72;21030332;28;20093;-66
2022/05/18 02:32:17;;;;;;;8.45;4.60;;;;;;;15.72;97.57;100826.53;21032559;28;20056;-65
2022/05/18 02:42:19;;;;;;;8.57;4.15;;;;;;;15.73;96.91;100829.13;21032217;28;20044;-66
2022/05/18 02:52:20;;;;;;;7.20;4.05;;;;;;;15.66;97.37;100835.47;21031578;28;20107;-65
2022/05/18 03:02:22;;;;;;;7.05;4.10;;;;;;;15.50;98.77;100831.53;21031188;28;20102;-65
2022/05/18 03:12:23;;;;;;;8.10;4.47;;;;;;;15.22;100.00;100849.91;21031032;28;20416;-65
2022/05/18 03:32:44;;;;;;;10.15;5.07;;;;;;;14.76;100.00;100877.53;21024397;28;20439;-65
2022/05/18 03:42:46;;;;;;;8.48;4.85;;;;;;;14.61;100.00;100887.53;21027514;28;20044;-66
2022/05/18 03:52:48;;;;;;;9.43;4.93;;;;;;;14.39;100.00;100891.56;21026624;28;20139;-66
2022/05/18 04:02:49;;;;;;;8.18;4.85;;;;;;;14.30;100.00;100894.41;21025081;28;20044;-66
2022/05/18 04:12:51;;;;;;;8.88;4.65;;;;;;;14.28;100.00;100896.22;21025957;28;20052;-66
2022/05/18 04:22:53;;;;;;;8.32;5.25;;;;;;;14.50;100.00;100901.88;21026105;28;20048;-66
2022/05/18 04:32:55;;;;;;;9.40;5.20;;;;;;;14.77;100.00;100913.53;21024053;28;20040;-66
2022/05/18 04:42:56;;;;;;;7.75;4.90;;;;;;;15.35;100.00;100914.63;21025186;28;20048;-66
2022/05/18 04:52:58;;;;;;;7.13;5.00;;;;;;;15.38;99.47;100930.41;21022034;28;20055;-66
2022/05/18 05:03:00;;;;;;;7.80;4.57;;;;;;;15.48;99.44;100939.78;21020417;28;20048;-66
2022/05/18 05:13:02;;;;;;;10.30;5.07;;;;;;;15.72;98.42;100945.34;21023006;28;20134;-66
2022/05/18 05:23:03;;;;;;;7.60;4.75;;;;;;;15.92;97.30;100953.53;21022446;28;20110;-65
2022/05/18 05:33:05;;;;;;;8.60;4.60;;;;;;;16.34;94.68;100955.84;21025327;28;20106;-66
2022/05/18 05:43:09;;;;;;;9.40;5.22;;;;;;;16.61;93.63;100948.78;21015561;28;20051;-66
2022/05/18 05:53:11;;;;;;;10.97;4.93;;;;;;;17.02;91.05;100965.16;21036435;28;20091;-66
2022/05/18 06:03:16;;;;;;;8.65;5.13;;;;;;;17.05;90.35;100965.88;21034780;28;20114;-66
2022/05/18 06:13:18;;;;;;;10.18;5.32;;;;;;;17.27;90.23;100971.31;21035061;28;20133;-65
2022/05/18 06:23:20;;;;;;;9.65;5.32;;;;;;;17.66;88.70;100969.06;21034533;28;20477;-65
2022/05/18 06:33:21;;;;;;;10.27;5.20;;;;;;;17.87;87.32;100979.81;21033114;28;20102;-65
2022/05/18 06:43:22;;;;;;;13.23;5.65;;;;;;;18.03;86.67;100994.25;21024606;28;20420;-65
2022/05/18 06:53:24;;;;;;;9.25;5.20;;;;;;;18.51;83.95;100982.69;21032146;28;20050;-65
2022/05/18 07:03:25;;;;;;;8.52;4.55;;;;;;;18.91;83.08;100975.81;21023161;28;20113;-65
2022/05/18 07:13:27;;;;;;;8.20;4.65;;;;;;;19.21;81.24;100966.59;21021396;28;20078;-65
2022/05/18 07:23:29;;;;;;;8.70;4.15;;;;;;;19.68;78.81;100971.63;21022145;28;20514;-65
2022/05/18 07:33:30;;;;;;;14.85;4.53;;;;;;;19.92;78.59;100968.81;21020321;28;20098;-65
2022/05/18 07:43:32;;;;;;;6.20;3.53;;;;;;;20.30;75.93;100979.47;21023305;28;20520;-65
2022/05/18 07:53:33;;;;;;;8.30;3.97;;;;;;;20.77;74.78;100984.38;21019930;28;20672;-65
2022/05/18 08:03:37;;;;;;;9.65;3.60;;;;;;;21.21;71.18;100984.81;21016724;28;20052;-65
2022/05/18 08:23:59;;;;;;;8.80;3.22;;;;;;;21.97;70.50;100977.31;21015905;28;20720;-66
2022/05/18 08:34:00;;;;;;;7.13;3.28;;;;;;;22.28;66.03;100976.56;21016299;28;20450;-66
2022/05/18 08:44:06;;;;;;;8.90;3.95;;;;;;;22.98;63.21;100966.34;21018256;28;20476;-66
2022/05/18 08:54:45;;;;;;;12.23;3.83;;;;;;;23.30;62.22;100968.00;21016496;28;20121;-66
2022/05/18 09:05:11;;;;;;;7.20;3.15;;;;;;;23.60;59.43;100945.69;21015331;28;20097;-66
2022/05/18 09:15:35;;;;;;;9.23;2.67;;;;;;;24.08;55.88;100957.00;21019517;28;20052;-66
2022/05/18 09:26:11;;;;;;;8.05;2.95;;;;;;;24.38;54.14;100945.31;21027603;28;20499;-66
2022/05/18 09:36:29;;;;;;;6.80;3.30;;;;;;;24.89;53.34;100949.06;21025772;28;20048;-66
2022/05/18 09:46:31;;;;;;;7.82;3.40;;;;;;;25.02;53.28;100936.59;21028481;28;20044;-65
2022/05/18 09:56:41;;;;;;;5.38;2.95;;;;;;;25.39;50.11;100935.91;21029088;28;20044;-64
2022/05/18 10:17:07;;;;;;;6.30;3.38;;;;;;;26.04;44.95;100919.69;21026727;28;20408;-65
2022/05/18 10:27:14;;;;;;;7.05;3.13;;;;;;;26.43;43.87;100912.41;21026695;28;20052;-66
2022/05/18 10:37:32;;;;;;;6.55;3.10;;;;;;;26.47;46.91;100892.44;21024248;28;20534;-66
2022/05/18 10:47:36;;;;;;;7.03;2.70;;;;;;;27.15;44.20;100877.44;21024928;28;20059;-66
2022/05/18 10:57:41;;;;;;;4.10;2.40;;;;;;;27.16;41.05;100874.59;21023982;28;20448;-65
2022/05/18 11:07:43;;;;;;;7.15;2.70;;;;;;;27.38;41.90;100852.28;21022003;28;20045;-65
2022/05/18 11:17:55;;;;;;;3.40;2.07;;;;;;;27.28;39.22;100841.41;21032362;28;20063;-65
2022/05/18 11:28:17;;;;;;;9.07;2.50;;;;;;;27.58;37.90;100834.56;21063545;28;20048;-66
2022/05/18 11:38:37;;;;;;;6.90;2.63;;;;;;;27.49;39.07;100832.59;21062515;28;20047;-65
2022/05/18 11:48:47;;;;;;;5.43;2.25;;;;;;;27.71;35.48;100824.56;21063934;28;20048;-65
2022/05/18 11:59:08;;;;;;;10.13;2.60;;;;;;;27.73;34.76;100814.50;21062325;28;20040;-65
2022/05/18 12:09:35;;;;;;;5.05;2.10;;;;;;;27.59;33.84;100806.66;21059940;28;20546;-65
2022/05/18 12:19:46;;;;;;;7.90;2.05;;;;;;;27.90;32.42;100801.53;20978126;28;20110;-65
2022/05/18 12:29:50;;;;;;;5.90;2.05;;;;;;;27.94;35.52;100805.69;20975418;28;20102;-65
2022/05/18 12:40:18;;;;;;;4.43;2.00;;;;;;;27.78;33.97;100795.31;20975651;28;20044;-65
2022/05/18 12:50:33;;;;;;;7.07;2.40;;;;;;;27.81;33.03;100804.00;20973108;28;20049;-65
2022/05/18 13:00:50;;;;;;;5.70;2.00;;;;;;;28.19;32.54;100793.75;20969856;28;20045;-64
2022/05/18 13:11:25;;;;;;;5.35;2.25;;;;;;;27.95;32.25;100775.94;20972323;28;20497;-69
2022/05/18 13:21:28;;;;;;;4.55;2.17;;;;;;;28.06;33.46;100766.97;20973625;28;20049;-68
2022/05/18 13:31:30;;;;;;;;;;;;;;;28.30;32.50;100750.59;20972321;28;20049;-69
2022/05/18 13:41:36;;;;;;;7.15;1.95;;;;;;;28.17;33.71;100742.72;20973221;28;20288;-66
2022/05/18 13:51:43;;;;;;;6.70;1.90;;;;;;;28.44;33.14;100730.59;20933164;28;20463;-65
2022/05/18 14:01:47;;;;;;;5.93;1.92;;;;;;;28.71;31.44;100720.16;20933527;28;20044;-65
2022/05/18 14:11:55;;;;;;;4.65;1.85;;;;;;;28.54;30.43;100709.97;20986746;28;20052;-66
2022/05/18 14:21:58;;;;;;;5.45;2.35;;;;;;;28.63;31.98;100706.47;20986651;28;20056;-65
2022/05/18 14:32:05;;;;;;;4.83;2.10;;;;;;;28.97;31.37;100703.56;20985086;28;20048;-66
2022/05/18 14:42:09;;;;;;;3.53;1.92;;;;;;;28.79;32.17;100700.59;20983285;28;20044;-66
2022/05/18 14:52:27;;;;;;;4.57;2.17;;;;;;;28.83;32.96;100692.13;20982596;28;20505;-68
2022/05/18 15:02:31;;;;;;;4.57;1.80;;;;;;;29.05;32.95;100679.47;20979876;28;20041;-66
2022/05/18 15:12:41;;;;;;;4.45;2.20;;;;;;;29.03;32.91;100673.34;20980249;28;20462;-66
2022/05/18 15:23:15;;;;;;;4.78;2.10;;;;;;;28.82;32.78;100673.38;20980450;28;20056;-65
2022/05/18 15:33:18;;;;;;;6.95;2.60;;;;;;;28.93;31.50;100675.13;20949408;28;20048;-66
2022/05/18 15:43:20;;;;;;;5.00;1.80;;;;;;;29.12;33.12;100670.69;20978102;28;20048;-66
2022/05/18 15:53:29;;;;;;;3.67;1.80;;;;;;;29.07;30.72;100661.31;20979398;28;20513;-66
2022/05/18 16:03:30;;;;;;;7.13;2.33;;;;;;;29.03;32.58;100657.19;20975675;28;20049;-66
2022/05/18 16:13:34;;;;;;;6.47;2.10;;;;;;;29.00;31.64;100654.78;20975331;28;20071;-66
2022/05/18 16:23:37;;;;;;;4.90;1.90;;;;;;;28.84;32.61;100645.31;20974323;28;20052;-66
2022/05/18 16:33:39;;;;;;;3.50;1.90;;;;;;;29.09;32.41;100643.16;20974063;28;20606;-67
2022/05/18 16:43:40;;;;;;;5.90;2.00;;;;;;;28.89;31.85;100648.47;20975515;28;20102;-66
2022/05/18 16:53:42;;;;;;;4.35;2.28;;;;;;;28.80;32.13;100638.50;20972634;28;20045;-66
2022/05/18 17:03:43;;;;;;;6.95;2.33;;;;;;;28.81;32.59;100628.56;20974135;28;20110;-69
2022/05/18 17:13:47;;;;;;;5.07;2.03;;;;;;;28.40;32.43;100624.09;20964913;28;20425;-69
2022/05/18 17:23:50;;;;;;;5.65;1.77;;;;;;;28.27;32.18;100619.78;20974294;28;20663;-68
2022/05/18 17:33:52;;;;;;;5.93;2.20;;;;;;;28.01;33.94;100623.84;20972041;28;20068;-69
2022/05/18 17:43:53;;;;;;;6.57;1.80;;;;;;;27.69;35.15;100632.75;20987336;28;20056;-69
2022/05/18 17:53:55;;;;;;;6.28;2.30;;;;;;;27.71;35.87;100630.84;20987816;28;20080;-69
2022/05/18 18:03:58;;;;;;;5.53;2.10;;;;;;;27.65;34.82;100625.94;20986732;28;20044;-69
2022/05/18 18:13:59;;;;;;;3.88;2.08;;;;;;;27.02;38.01;100624.84;20954581;28;20053;-69
2022/05/18 18:24:01;;;;;;;5.50;2.13;;;;;;;26.58;38.08;100631.94;20910149;28;20056;-69
2022/05/18 18:34:03;;;;;;;8.77;2.80;;;;;;;26.19;38.62;100636.75;20901609;28;20536;-69
2022/05/18 18:44:05;;;;;;;5.82;1.73;;;;;;;25.80;39.67;100636.13;20957471;22;20051;-76
2022/05/18 19:04:27;;;;;;;8.40;1.95;;;;;;;25.24;40.83;100641.16;21092540;28;20048;-74
2022/05/18 19:14:29;;;;;;;5.68;2.20;;;;;;;24.81;42.24;100649.59;21065002;28;20101;-74
2022/05/18 19:24:31;;;;;;;6.47;2.30;;;;;;;24.73;42.68;100665.38;21068702;28;20056;-73
2022/05/18 19:34:38;;;;;;;10.02;2.42;;;;;;;24.53;44.11;100664.09;21061305;28;20052;-74
2022/05/18 19:44:40;;;;;;;5.65;2.20;;;;;;;24.14;46.03;100666.78;21063139;28;20485;-74
2022/05/18 19:54:42;;;;;;;8.43;2.17;;;;;;;23.76;47.74;100684.47;21061714;28;20151;-74
2022/05/18 20:04:44;;;;;;;6.43;2.58;;;;;;;23.42;49.62;100682.25;21060374;28;20036;-74
2022/05/18 20:14:46;;;;;;;6.47;2.05;;;;;;;23.15;50.46;100682.22;21100417;28;20047;-74
2022/05/18 20:24:47;;;;;;;4.68;2.20;;;;;;;23.01;51.13;100680.41;21145704;28;20389;-74
2022/05/18 20:34:49;;;;;;;5.75;2.10;;;;;;;22.84;53.18;100683.25;21143324;28;20096;-74
2022/05/18 20:44:54;;;;;;;8.45;2.80;;;;;;;22.76;53.64;100679.25;21144250;28;20199;-74
2022/05/18 20:54:56;;;;;;;6.72;2.92;;;;;;;22.65;55.15;100686.19;21144566;28;20574;-74
2022/05/18 21:04:57;;;;;;;5.95;3.10;;;;;;;22.48;57.62;100690.75;21142354;28;20039;-74
2022/05/18 21:14:59;;;;;;;5.93;3.38;;;;;;;22.31;57.96;100698.91;21108405;28;20044;-74
2022/05/18 21:25:00;;;;;;;5.50;3.00;;;;;;;22.23;58.80;100710.06;21075272;28;20040;-74
2022/05/18 21:35:02;;;;;;;5.38;2.70;;;;;;;22.04;59.45;100717.38;21072989;28;20047;-74
2022/05/18 21:45:09;;;;;;;5.90;3.40;;;;;;;22.02;59.17;100727.25;21074251;28;20055;-75
2022/05/18 21:55:11;;;;;;;5.35;3.10;;;;;;;21.99;59.30;100722.09;21071909;28;20052;-74
2022/05/18 22:05:12;;;;;;;7.70;3.63;;;;;;;21.79;60.25;100731.25;21091018;28;20044;-75
2022/05/18 22:15:15;;;;;;;5.63;2.63;;;;;;;21.64;61.08;100732.97;21095153;28;20058;-75
2022/05/18 22:25:16;;;;;;;7.80;2.95;;;;;;;21.51;62.06;100727.50;21078702;28;20102;-75
2022/05/18 22:35:18;;;;;;;6.03;2.75;;;;;;;21.37;62.89;100723.88;21079397;28;20044;-75
2022/05/18 22:45:22;;;;;;;7.57;3.05;;;;;;;21.41;62.67;100722.75;21077764;28;20634;-76
2022/05/18 22:55:23;;;;;;;6.57;2.83;;;;;;;21.14;64.26;100723.31;21076795;28;20514;-76
2022/05/18 23:05:25;;;;;;;7.35;2.72;;;;;;;21.04;65.08;100721.22;21074916;28;20288;-76
2022/05/18 23:15:27;;;;;;;4.65;2.80;;;;;;;20.96;65.07;100725.16;21075499;28;20052;-76
2022/05/18 23:25:28;;;;;;;6.60;2.90;;;;;;;20.16;72.17;100720.41;21074297;28;20082;-76
2022/05/18 23:35:30;;;;;;;7.53;2.83;;;;;;;19.89;72.83;100709.38;21072453;28;20052;-74
2022/05/18 23:45:33;;;;;;;6.25;2.72;;;;;;;19.52;75.13;100709.41;21072694;28;20385;-74
2022/05/18 23:55:35;;;;;;;6.63;3.45;;;;;;;19.67;73.78;100695.41;21071785;28;20078;-76
